Time;durP1;ratioP1;P1;durP2;ratioP2;P2;SDS_P1;SDS_P2;PMS_P1;PMS_P2;Temp;Humidity;BMP_temperature;BMP_pressure;BME280_temperature;BME280_humidity;BME280_pressure;Samples;Min_cycle;Max_cycle;Signal;HPM_P1;HPM_P2
2022/04/21 00:00:08;;;;;;;6.70;5.57;;;;;;;;;;5052480;28;20068;-81
2022/04/21 00:02:35;;;;;;;7.20;5.13;;;;;;;;;;5053612;28;20053;-82
2022/04/21 00:05:01;;;;;;;7.30;5.30;;;;;;;;;;5053422;28;20080;-82
2022/04/21 00:07:28;;;;;;;7.25;5.15;;;;;;;;;;5069019;28;20083;-82
2022/04/21 00:09:54;;;;;;;8.57;5.20;;;;;;;;;;5068632;28;20084;-84
2022/04/21 00:12:21;;;;;;;5.93;5.32;;;;;;;;;;5053431;28;20449;-79
2022/04/21 00:14:47;;;;;;;5.95;4.80;;;;;;;;;;5053485;28;20084;-80
2022/04/21 00:17:13;;;;;;;6.85;4.88;;;;;;;;;;5052343;28;20045;-80
2022/04/21 00:19:40;;;;;;;5.90;4.95;;;;;;;;;;5053534;28;20045;-80
2022/04/21 00:24:51;;;;;;;7.45;5.20;;;;;;;;;;5053083;28;20073;-80
2022/04/21 00:27:18;;;;;;;6.35;5.15;;;;;;;;;;5053198;28;20065;-80
2022/04/21 00:29:44;;;;;;;6.25;5.25;;;;;;;;;;5052094;28;20088;-81
2022/04/21 00:32:11;;;;;;;6.28;5.10;;;;;;;;;;5051647;28;20060;-81
2022/04/21 00:34:37;;;;;;;7.13;5.53;;;;;;;;;;5053248;28;20554;-82
2022/04/21 00:37:04;;;;;;;7.68;5.30;;;;;;;;;;5051503;28;20127;-82
2022/04/21 00:39:31;;;;;;;8.50;5.53;;;;;;;;;;5053162;28;20044;-82
2022/04/21 00:42:01;;;;;;;8.65;5.68;;;;;;;;;;5051552;28;20049;-81
2022/04/21 00:44:28;;;;;;;5.88;5.00;;;;;;;;;;5051666;28;20053;-82
2022/04/21 00:46:55;;;;;;;7.07;5.03;;;;;;;;;;5052722;28;20081;-83
2022/04/21 00:49:22;;;;;;;5.00;4.40;;;;;;;;;;5052625;28;20072;-83
2022/04/21 00:51:51;;;;;;;5.88;4.97;;;;;;;;;;5052543;28;20091;-83
2022/04/21 00:54:18;;;;;;;6.50;5.00;;;;;;;;;;5052441;28;20076;-83
2022/04/21 00:56:45;;;;;;;8.75;5.55;;;;;;;;;;5051575;28;20045;-81
2022/04/21 00:59:12;;;;;;;6.45;5.50;;;;;;;;;;5052434;28;20080;-81
2022/04/21 01:04:24;;;;;;;5.28;4.78;;;;;;;;;;5052744;28;20057;-80
2022/04/21 01:06:54;;;;;;;6.88;5.13;;;;;;;;;;5052607;28;20072;-80
2022/04/21 01:09:21;;;;;;;7.13;5.63;;;;;;;;;;5052264;28;20045;-80
2022/04/21 01:11:49;;;;;;;7.22;5.53;;;;;;;;;;5051182;28;20092;-79
2022/04/21 01:14:16;;;;;;;6.47;5.40;;;;;;;;;;5050821;28;20072;-82
2022/04/21 01:16:43;;;;;;;8.33;5.40;;;;;;;;;;5040288;28;20540;-81
2022/04/21 01:19:09;;;;;;;5.25;4.68;;;;;;;;;;5065204;28;20045;-81
2022/04/21 01:21:36;;;;;;;7.28;4.97;;;;;;;;;;5052096;28;20162;-81
2022/04/21 01:24:04;;;;;;;7.78;5.20;;;;;;;;;;5050526;28;20076;-80
2022/04/21 01:26:34;;;;;;;8.27;5.18;;;;;;;;;;5051941;28;20493;-81
2022/04/21 01:29:02;;;;;;;5.82;4.72;;;;;;;;;;5050745;28;20122;-83
2022/04/21 01:31:29;;;;;;;6.38;4.75;;;;;;;;;;5052158;28;20057;-83
2022/04/21 01:33:56;;;;;;;5.57;4.70;;;;;;;;;;5049467;28;20060;-83
2022/04/21 01:36:22;;;;;;;6.00;5.05;;;;;;;;;;5051797;28;20484;-83
2022/04/21 01:41:34;;;;;;;6.63;4.90;;;;;;;;;;5051899;28;20080;-82
2022/04/21 01:44:00;;;;;;;6.65;5.03;;;;;;;;;;5051943;28;20080;-83
2022/04/21 01:46:27;;;;;;;6.43;4.75;;;;;;;;;;5051461;28;20468;-83
2022/04/21 01:48:53;;;;;;;6.50;4.78;;;;;;;;;;5051502;28;20135;-83
2022/04/21 01:51:20;;;;;;;7.38;4.93;;;;;;;;;;5051698;28;20111;-82
2022/04/21 01:53:46;;;;;;;8.05;5.60;;;;;;;;;;5051591;28;20095;-83
2022/04/21 01:56:13;;;;;;;6.90;5.05;;;;;;;;;;5051564;28;20084;-81
2022/04/21 01:58:40;;;;;;;5.50;4.90;;;;;;;;;;5051325;28;20099;-82
2022/04/21 02:01:07;;;;;;;7.35;5.35;;;;;;;;;;5051281;28;20053;-81
2022/04/21 02:03:34;;;;;;;6.83;5.30;;;;;;;;;;5051315;28;20076;-80
2022/04/21 02:06:00;;;;;;;5.40;4.90;;;;;;;;;;5051574;28;20106;-81
2022/04/21 02:08:27;;;;;;;6.18;5.32;;;;;;;;;;5051117;28;20045;-82
2022/04/21 02:10:53;;;;;;;8.20;5.93;;;;;;;;;;5051199;28;20501;-82
2022/04/21 02:13:20;;;;;;;6.38;5.22;;;;;;;;;;5051380;28;20049;-83
2022/04/21 02:15:46;;;;;;;6.05;5.00;;;;;;;;;;5051143;28;20135;-85
2022/04/21 02:18:20;;;;;;;6.38;5.50;;;;;;;;;;5049695;28;20459;-81
2022/04/21 02:20:46;;;;;;;5.20;4.63;;;;;;;;;;5066381;28;20049;-80
2022/04/21 02:23:13;;;;;;;8.18;4.82;;;;;;;;;;5049949;28;20107;-80
2022/04/21 02:25:39;;;;;;;8.13;5.75;;;;;;;;;;5050867;28;20103;-80
2022/04/21 02:28:07;;;;;;;5.85;5.07;;;;;;;;;;5051176;28;20115;-80
2022/04/21 02:30:34;;;;;;;5.88;5.00;;;;;;;;;;5049841;28;20079;-81
2022/04/21 02:33:00;;;;;;;6.75;5.30;;;;;;;;;;5050802;28;20089;-80
2022/04/21 02:35:26;;;;;;;5.93;5.28;;;;;;;;;;5051045;28;20128;-80
2022/04/21 02:37:53;;;;;;;6.32;4.80;;;;;;;;;;5049499;28;20521;-80
2022/04/21 02:40:19;;;;;;;5.30;4.72;;;;;;;;;;5050671;28;20132;-80
2022/04/21 02:42:46;;;;;;;4.80;4.28;;;;;;;;;;5050960;28;20087;-80
2022/04/21 02:45:13;;;;;;;6.45;5.18;;;;;;;;;;5050781;28;20045;-80
2022/04/21 02:47:40;;;;;;;5.45;4.85;;;;;;;;;;5050649;28;20053;-80
2022/04/21 02:50:07;;;;;;;6.50;5.53;;;;;;;;;;5066294;28;20468;-80
2022/04/21 02:52:41;;;;;;;5.38;4.45;;;;;;;;;;5050802;28;20092;-80
2022/04/21 02:57:53;;;;;;;5.60;4.93;;;;;;;;;;5050688;28;20098;-80
2022/04/21 03:00:19;;;;;;;6.13;4.95;;;;;;;;;;5050561;28;20057;-81
2022/04/21 03:02:46;;;;;;;6.70;4.88;;;;;;;;;;5050787;28;20044;-81
2022/04/21 03:05:13;;;;;;;5.65;5.07;;;;;;;;;;5049548;28;20052;-81
2022/04/21 03:07:39;;;;;;;6.07;5.35;;;;;;;;;;5050505;28;20546;-81
2022/04/21 03:10:06;;;;;;;7.75;5.53;;;;;;;;;;5049365;28;20077;-85
2022/04/21 03:12:32;;;;;;;7.15;5.38;;;;;;;;;;5049494;28;20041;-81
2022/04/21 03:14:59;;;;;;;6.28;4.93;;;;;;;;;;5050425;28;20053;-81
2022/04/21 03:17:25;;;;;;;5.32;4.70;;;;;;;;;;5050775;28;20128;-83
2022/04/21 03:19:52;;;;;;;6.63;5.28;;;;;;;;;;5049072;28;20520;-83
2022/04/21 03:25:04;;;;;;;6.32;5.55;;;;;;;;;;5050622;28;20077;-84
2022/04/21 03:27:31;;;;;;;7.35;5.55;;;;;;;;;;5050878;28;20143;-83
2022/04/21 03:30:02;;;;;;;8.27;5.10;;;;;;;;;;5049341;28;20064;-83
2022/04/21 03:32:29;;;;;;;7.45;5.22;;;;;;;;;;5048543;28;20141;-83
2022/04/21 03:34:55;;;;;;;5.83;5.27;;;;;;;;;;5050466;28;20081;-84
2022/04/21 03:37:22;;;;;;;7.22;5.65;;;;;;;;;;5050124;28;20598;-83
2022/04/21 03:39:48;;;;;;;12.15;7.10;;;;;;;;;;5048831;28;20095;-83
2022/04/21 03:42:25;;;;;;;10.18;6.95;;;;;;;;;;5050186;28;20076;-82
2022/04/21 03:44:51;;;;;;;8.20;5.47;;;;;;;;;;5049500;28;20199;-80
2022/04/21 03:47:18;;;;;;;8.73;6.35;;;;;;;;;;5049141;28;20087;-80
2022/04/21 03:49:45;;;;;;;9.90;5.65;;;;;;;;;;5050313;28;20103;-80
2022/04/21 03:52:11;;;;;;;9.18;4.93;;;;;;;;;;5050400;28;20099;-79
2022/04/21 03:54:38;;;;;;;6.60;5.50;;;;;;;;;;5050265;28;20084;-79
2022/04/21 03:57:06;;;;;;;7.50;5.47;;;;;;;;;;5051491;28;20144;-81
2022/04/21 03:59:33;;;;;;;6.47;5.38;;;;;;;;;;5053636;28;20048;-81
2022/04/21 04:02:03;;;;;;;7.53;5.53;;;;;;;;;;5053430;28;20045;-82
2022/04/21 04:04:33;;;;;;;6.53;4.90;;;;;;;;;;5052615;28;20056;-83
2022/04/21 04:12:31;;;;;;;6.00;5.38;;;;;;;;;;5053754;28;20110;-81
2022/04/21 04:14:57;;;;;;;6.53;5.45;;;;;;;;;;5052170;28;20053;-81
2022/04/21 04:17:29;;;;;;;6.18;5.00;;;;;;;;;;5053304;28;20155;-81
2022/04/21 04:19:56;;;;;;;6.70;5.25;;;;;;;;;;5068444;28;20088;-82
2022/04/21 04:22:22;;;;;;;7.15;5.13;;;;;;;;;;5051926;28;20080;-80
2022/04/21 04:24:54;;;;;;;5.43;4.72;;;;;;;;;;5053422;28;20177;-80
2022/04/21 04:27:21;;;;;;;5.53;4.85;;;;;;;;;;5053132;28;20096;-82
2022/04/21 04:29:48;;;;;;;8.80;5.53;;;;;;;;;;5053133;28;20124;-79
2022/04/21 04:32:15;;;;;;;7.05;5.20;;;;;;;;;;5053050;28;20134;-82
2022/04/21 04:34:43;;;;;;;6.53;5.70;;;;;;;;;;5053231;28;20416;-83
2022/04/21 04:37:10;;;;;;;6.63;5.35;;;;;;;;;;5053011;28;20101;-83
2022/04/21 04:39:36;;;;;;;6.50;5.68;;;;;;;;;;5052986;28;20077;-81
2022/04/21 04:42:18;;;;;;;5.93;5.32;;;;;;;;;;5051461;28;20437;-82
2022/04/21 04:44:45;;;;;;;7.35;5.10;;;;;;;;;;5051769;28;20118;-83
2022/04/21 04:47:11;;;;;;;6.95;5.32;;;;;;;;;;5053082;28;20045;-82
2022/04/21 04:49:38;;;;;;;6.65;5.03;;;;;;;;;;5051373;28;20562;-82
2022/04/21 04:52:05;;;;;;;5.78;5.05;;;;;;;;;;5052643;28;20080;-82
2022/04/21 04:54:31;;;;;;;7.27;5.10;;;;;;;;;;5067901;28;20087;-80
2022/04/21 04:56:58;;;;;;;5.55;4.93;;;;;;;;;;5052780;28;20649;-81
2022/04/21 04:59:25;;;;;;;7.43;5.00;;;;;;;;;;5052415;28;20075;-81
2022/04/21 05:01:51;;;;;;;6.93;5.57;;;;;;;;;;5052584;28;20048;-80
2022/04/21 05:04:19;;;;;;;6.22;5.28;;;;;;;;;;5052744;28;20048;-80
2022/04/21 05:06:46;;;;;;;6.43;5.38;;;;;;;;;;5052624;28;20072;-79
2022/04/21 05:09:13;;;;;;;6.88;4.80;;;;;;;;;;5052261;28;20076;-79
2022/04/21 05:11:46;;;;;;;5.72;5.13;;;;;;;;;;5052468;28;20056;-79
2022/04/21 05:14:13;;;;;;;7.78;5.88;;;;;;;;;;5052469;28;20072;-81
2022/04/21 05:16:39;;;;;;;8.15;5.28;;;;;;;;;;5051198;28;20052;-80
2022/04/21 05:19:10;;;;;;;6.95;5.38;;;;;;;;;;5052104;28;20049;-81
2022/04/21 05:21:37;;;;;;;6.45;5.00;;;;;;;;;;5052268;28;20139;-83
2022/04/21 05:24:04;;;;;;;7.22;5.50;;;;;;;;;;5052288;28;20099;-81
2022/04/21 05:26:32;;;;;;;8.10;5.55;;;;;;;;;;5051946;28;20083;-82
2022/04/21 05:28:59;;;;;;;7.03;5.40;;;;;;;;;;5052132;28;20459;-82
2022/04/21 05:31:26;;;;;;;6.40;5.32;;;;;;;;;;5049109;28;20468;-80
2022/04/21 05:33:53;;;;;;;8.13;5.85;;;;;;;;;;5051615;28;20492;-79
2022/04/21 05:36:20;;;;;;;8.90;6.07;;;;;;;;;;5051537;28;20052;-80
2022/04/21 05:38:49;;;;;;;11.35;6.22;;;;;;;;;;5052051;28;20182;-79
2022/04/21 05:41:17;;;;;;;8.38;5.93;;;;;;;;;;5051334;28;20041;-80
2022/04/21 05:43:44;;;;;;;14.70;8.60;;;;;;;;;;5051227;28;20045;-81
2022/04/21 05:46:12;;;;;;;6.60;5.75;;;;;;;;;;5052186;28;20084;-79
2022/04/21 05:48:39;;;;;;;;;;;;;;;;;;5050505;28;20049;-79
2022/04/21 05:51:05;;;;;;;5.70;4.93;;;;;;;;;;5051520;28;19950;-80
2022/04/21 05:53:34;;;;;;;7.13;4.90;;;;;;;;;;5051204;28;20086;-80
2022/04/21 05:56:01;;;;;;;7.20;5.00;;;;;;;;;;5051705;28;20057;-80
2022/04/21 05:58:27;;;;;;;6.53;5.55;;;;;;;;;;5051019;28;20049;-80
2022/04/21 06:00:57;;;;;;;7.85;6.20;;;;;;;;;;5050905;28;20560;-80
2022/04/21 06:03:29;;;;;;;8.45;6.03;;;;;;;;;;5051002;28;20055;-79
2022/04/21 06:05:56;;;;;;;6.63;5.82;;;;;;;;;;5050829;28;20045;-79
2022/04/21 06:08:22;;;;;;;8.35;6.70;;;;;;;;;;5050806;28;20076;-80
2022/04/21 06:10:48;;;;;;;11.23;6.60;;;;;;;;;;5051464;28;20053;-80
2022/04/21 06:13:15;;;;;;;9.80;7.47;;;;;;;;;;5050236;28;20053;-85
2022/04/21 06:15:43;;;;;;;10.43;7.63;;;;;;;;;;5050661;28;20060;-85
2022/04/21 06:18:10;;;;;;;12.63;6.93;;;;;;;;;;5051516;28;20045;-81
2022/04/21 06:20:36;;;;;;;10.30;6.68;;;;;;;;;;5065466;28;20045;-80
2022/04/21 06:23:03;;;;;;;8.52;7.50;;;;;;;;;;5051296;28;20052;-80
2022/04/21 06:25:29;;;;;;;11.75;7.32;;;;;;;;;;5051006;28;20092;-80
2022/04/21 06:27:56;;;;;;;12.50;7.43;;;;;;;;;;5050600;28;20088;-79
2022/04/21 06:30:23;;;;;;;11.90;7.75;;;;;;;;;;5050762;28;20045;-82
2022/04/21 06:32:49;;;;;;;11.82;8.05;;;;;;;;;;5050268;28;20080;-77
2022/04/21 06:35:17;;;;;;;9.85;7.50;;;;;;;;;;5050850;28;20041;-80
2022/04/21 06:37:45;;;;;;;10.88;7.53;;;;;;;;;;5050911;28;20052;-79
2022/04/21 06:40:12;;;;;;;11.30;8.25;;;;;;;;;;5050903;28;20045;-80
2022/04/21 06:42:41;;;;;;;12.48;7.80;;;;;;;;;;5050158;28;20496;-80
2022/04/21 06:48:04;;;;;;;8.82;7.30;;;;;;;;;;5050608;28;20488;-74
2022/04/21 06:50:35;;;;;;;8.18;7.38;;;;;;;;;;5050917;28;20088;-76
2022/04/21 06:53:02;;;;;;;12.57;8.30;;;;;;;;;;5050185;28;20138;-79
2022/04/21 06:55:29;;;;;;;9.50;7.28;;;;;;;;;;5049431;28;20206;-80
2022/04/21 06:57:56;;;;;;;12.02;7.70;;;;;;;;;;5047193;28;20053;-75
2022/04/21 07:00:26;;;;;;;10.13;7.43;;;;;;;;;;5045624;28;20084;-77
2022/04/21 07:02:57;;;;;;;10.70;7.47;;;;;;;;;;5049215;28;20068;-74
2022/04/21 07:05:24;;;;;;;9.05;7.30;;;;;;;;;;5050858;28;20049;-75
2022/04/21 07:07:51;;;;;;;11.52;8.10;;;;;;;;;;5050532;28;20099;-75
2022/04/21 07:10:18;;;;;;;10.53;8.17;;;;;;;;;;5040771;28;20134;-75
2022/04/21 07:12:46;;;;;;;9.90;8.40;;;;;;;;;;5040359;28;20164;-75
2022/04/21 07:15:13;;;;;;;11.05;8.35;;;;;;;;;;5044356;28;20139;-75
2022/04/21 07:17:40;;;;;;;12.13;8.53;;;;;;;;;;5049065;28;20084;-75
2022/04/21 07:20:07;;;;;;;12.43;9.02;;;;;;;;;;5047513;28;20106;-75
2022/04/21 07:22:34;;;;;;;12.32;9.50;;;;;;;;;;5047674;28;20045;-76
2022/04/21 07:25:02;;;;;;;10.63;8.30;;;;;;;;;;5049400;28;20465;-75
2022/04/21 07:27:28;;;;;;;10.65;8.43;;;;;;;;;;5049187;28;20487;-75
2022/04/21 07:29:56;;;;;;;11.02;8.05;;;;;;;;;;5049213;28;20551;-75
2022/04/21 07:32:22;;;;;;;10.73;8.25;;;;;;;;;;5051188;28;20455;-75
2022/04/21 07:34:49;;;;;;;9.60;8.52;;;;;;;;;;5051713;28;20051;-75
2022/04/21 07:37:16;;;;;;;13.25;10.02;;;;;;;;;;5051557;28;20454;-75
2022/04/21 07:39:42;;;;;;;14.27;8.60;;;;;;;;;;5051371;28;20053;-76
2022/04/21 07:42:10;;;;;;;12.07;8.82;;;;;;;;;;5053057;28;20435;-75
2022/04/21 07:44:37;;;;;;;;;;;;;;;;;;5050208;28;20124;-78
2022/04/21 07:47:04;;;;;;;11.45;8.93;;;;;;;;;;5051039;28;20039;-75
2022/04/21 07:49:46;;;;;;;12.35;9.27;;;;;;;;;;5052197;28;20057;-76
2022/04/21 07:55:08;;;;;;;13.20;9.82;;;;;;;;;;5052840;28;20144;-76
2022/04/21 07:57:35;;;;;;;12.68;10.18;;;;;;;;;;5052820;28;20056;-76
2022/04/21 08:00:03;;;;;;;12.25;9.80;;;;;;;;;;5051438;28;20080;-76
2022/04/21 08:02:29;;;;;;;15.05;10.32;;;;;;;;;;5050353;28;20651;-79
2022/04/21 08:04:56;;;;;;;11.52;9.85;;;;;;;;;;5052321;28;20460;-79
2022/04/21 08:07:23;;;;;;;14.45;10.30;;;;;;;;;;5051856;28;20132;-79
2022/04/21 08:09:49;;;;;;;12.57;10.13;;;;;;;;;;5052213;28;20454;-79
2022/04/21 08:12:16;;;;;;;14.93;9.70;;;;;;;;;;5051231;28;20081;-78
2022/04/21 08:14:42;;;;;;;14.52;9.95;;;;;;;;;;5052197;28;20449;-79
2022/04/21 08:17:09;;;;;;;17.52;10.20;;;;;;;;;;5052398;28;20454;-79
2022/04/21 08:19:35;;;;;;;12.55;10.15;;;;;;;;;;5051988;28;20148;-81
2022/04/21 08:22:02;;;;;;;14.03;9.77;;;;;;;;;;5052246;28;20102;-82
2022/04/21 08:33:15;;;;;;;13.00;9.40;;;;;;;;;;5051279;28;20512;-80
2022/04/21 08:35:41;;;;;;;10.77;9.45;;;;;;;;;;5051223;28;20053;-79
2022/04/21 08:38:09;;;;;;;10.67;8.97;;;;;;;;;;5051269;28;20083;-80
2022/04/21 08:40:35;;;;;;;;;;;;;;;;;;5051942;28;20278;-80
2022/04/21 08:43:05;;;;;;;9.73;8.70;;;;;;;;;;5050746;28;19932;-81
2022/04/21 08:45:32;;;;;;;10.57;9.48;;;;;;;;;;5049541;28;20056;-83
2022/04/21 08:47:59;;;;;;;12.70;10.15;;;;;;;;;;5051589;28;20099;-79
2022/04/21 08:50:26;;;;;;;11.25;9.88;;;;;;;;;;5051409;28;20080;-81
2022/04/21 08:52:53;;;;;;;;;;;;;;;;;;5050832;28;20087;-80
2022/04/21 08:55:19;;;;;;;14.77;9.90;;;;;;;;;;5051191;28;19946;-81
2022/04/21 08:57:45;;;;;;;10.27;9.07;;;;;;;;;;5050297;28;20071;-81
2022/04/21 09:00:12;;;;;;;11.33;9.77;;;;;;;;;;5051311;28;20429;-81
2022/04/21 09:02:40;;;;;;;11.68;9.75;;;;;;;;;;5052174;28;20480;-81
2022/04/21 09:05:07;;;;;;;11.32;9.57;;;;;;;;;;5050132;28;20049;-81
2022/04/21 09:07:43;;;;;;;11.00;9.85;;;;;;;;;;5051613;28;20124;-81
2022/04/21 09:10:32;;;;;;;13.30;9.70;;;;;;;;;;5051485;28;20052;-81
2022/04/21 09:13:00;;;;;;;11.48;9.38;;;;;;;;;;5051503;28;20519;-81
2022/04/21 09:15:28;;;;;;;14.02;9.75;;;;;;;;;;5050907;28;20053;-81
2022/04/21 09:17:58;;;;;;;11.00;9.88;;;;;;;;;;5051108;28;20089;-82
2022/04/21 09:20:27;;;;;;;13.57;10.68;;;;;;;;;;5051060;28;20084;-82
2022/04/21 09:22:55;;;;;;;10.80;9.70;;;;;;;;;;5050995;28;20073;-82
2022/04/21 09:25:27;;;;;;;12.13;9.77;;;;;;;;;;5050809;28;20049;-82
2022/04/21 09:27:54;;;;;;;11.43;10.20;;;;;;;;;;5050938;28;20523;-82
2022/04/21 09:30:21;;;;;;;11.70;10.48;;;;;;;;;;5050818;28;20831;-82
2022/04/21 09:32:52;;;;;;;14.10;10.63;;;;;;;;;;5050926;28;20095;-82
2022/04/21 09:35:20;;;;;;;12.93;10.68;;;;;;;;;;5050684;28;20077;-80
2022/04/21 09:37:48;;;;;;;13.15;11.52;;;;;;;;;;5050576;28;20076;-81
2022/04/21 09:40:15;;;;;;;15.45;11.10;;;;;;;;;;5050553;28;20077;-81
2022/04/21 09:42:41;;;;;;;14.30;10.13;;;;;;;;;;5050197;28;20051;-82
2022/04/21 09:47:54;;;;;;;11.70;10.38;;;;;;;;;;5048311;28;20045;-81
2022/04/21 09:50:23;;;;;;;11.88;9.80;;;;;;;;;;5048815;28;20433;-80
2022/04/21 09:52:51;;;;;;;12.77;10.75;;;;;;;;;;5050332;28;20079;-82
2022/04/21 09:55:21;;;;;;;13.45;11.27;;;;;;;;;;5049475;28;20072;-81
2022/04/21 09:58:07;;;;;;;12.13;10.82;;;;;;;;;;5049094;28;20510;-82
2022/04/21 10:00:34;;;;;;;14.18;11.75;;;;;;;;;;5050096;28;20143;-83
2022/04/21 10:03:00;;;;;;;;;;;;;;;;;;5050515;28;20094;-83
2022/04/21 10:05:28;;;;;;;13.35;12.02;;;;;;;;;;5049816;28;20403;-84
2022/04/21 10:07:54;;;;;;;14.38;11.68;;;;;;;;;;5048474;28;20118;-84
2022/04/21 10:10:26;;;;;;;12.18;10.98;;;;;;;;;;5049963;28;20079;-83
2022/04/21 10:12:54;;;;;;;12.43;11.23;;;;;;;;;;5050031;28;20152;-84
2022/04/21 10:15:21;;;;;;;12.75;11.45;;;;;;;;;;5050506;28;20122;-84
2022/04/21 10:17:47;;;;;;;13.05;11.50;;;;;;;;;;5050566;28;20084;-84
2022/04/21 10:20:14;;;;;;;13.25;11.65;;;;;;;;;;5049589;28;20178;-80
2022/04/21 10:22:41;;;;;;;13.00;11.55;;;;;;;;;;5049596;28;20095;-80
2022/04/21 10:25:08;;;;;;;12.18;10.95;;;;;;;;;;5049845;28;20091;-78
2022/04/21 10:27:36;;;;;;;12.23;10.85;;;;;;;;;;5048571;28;20079;-82
2022/04/21 10:30:09;;;;;;;14.38;12.93;;;;;;;;;;5049445;28;20084;-80
2022/04/21 10:32:46;;;;;;;14.00;11.63;;;;;;;;;;5049857;28;20147;-80
2022/04/21 10:35:16;;;;;;;13.85;12.38;;;;;;;;;;5048570;28;20463;-81
2022/04/21 10:37:43;;;;;;;15.02;12.60;;;;;;;;;;5049468;28;20040;-80
2022/04/21 10:40:10;;;;;;;13.73;12.25;;;;;;;;;;5049338;28;20073;-80
2022/04/21 10:42:52;;;;;;;13.80;12.35;;;;;;;;;;5047884;28;20122;-80
2022/04/21 10:45:26;;;;;;;14.50;12.05;;;;;;;;;;5047420;28;20076;-80
2022/04/21 10:48:09;;;;;;;12.95;11.68;;;;;;;;;;5049663;28;20060;-80
2022/04/21 10:50:36;;;;;;;13.20;11.90;;;;;;;;;;5050000;28;20045;-81
2022/04/21 10:58:33;;;;;;;14.63;12.57;;;;;;;;;;5049026;28;20071;-79
2022/04/21 11:01:06;;;;;;;13.82;12.63;;;;;;;;;;5048894;28;20045;-79
2022/04/21 11:03:33;;;;;;;13.50;12.18;;;;;;;;;;5047973;28;20067;-78
2022/04/21 11:06:06;;;;;;;13.45;12.15;;;;;;;;;;5049447;28;20177;-78
2022/04/21 11:08:33;;;;;;;15.05;13.15;;;;;;;;;;5053094;28;20072;-80
2022/04/21 11:10:59;;;;;;;13.82;12.43;;;;;;;;;;5052423;28;20471;-81
2022/04/21 11:13:49;;;;;;;14.30;12.85;;;;;;;;;;5053661;28;20103;-83
2022/04/21 11:16:35;;;;;;;13.75;12.55;;;;;;;;;;5052942;28;20089;-83
2022/04/21 11:19:26;;;;;;;13.90;12.50;;;;;;;;;;5052056;28;20519;-82
2022/04/21 11:21:52;;;;;;;13.15;11.85;;;;;;;;;;5051850;28;20072;-82
2022/04/21 11:24:19;;;;;;;14.13;12.65;;;;;;;;;;5052946;28;20083;-83
2022/04/21 11:26:52;;;;;;;13.48;12.18;;;;;;;;;;5051509;28;20137;-82
2022/04/21 11:29:19;;;;;;;13.55;12.07;;;;;;;;;;5052719;28;20163;-83
2022/04/21 11:31:45;;;;;;;14.40;12.90;;;;;;;;;;5053024;28;20072;-85
2022/04/21 11:34:11;;;;;;;14.38;13.02;;;;;;;;;;5052566;28;20056;-83
2022/04/21 11:36:40;;;;;;;13.75;12.35;;;;;;;;;;5052927;28;20126;-84
2022/04/21 11:39:07;;;;;;;15.38;12.43;;;;;;;;;;5051271;28;20055;-83
2022/04/21 11:41:34;;;;;;;13.48;12.20;;;;;;;;;;5053840;28;20060;-83
2022/04/21 11:44:01;;;;;;;14.13;12.70;;;;;;;;;;5052582;28;20049;-81
2022/04/21 11:46:28;;;;;;;14.20;12.80;;;;;;;;;;5050831;28;20118;-83
2022/04/21 11:49:00;;;;;;;14.25;12.75;;;;;;;;;;5053020;28;20048;-79
2022/04/21 11:51:27;;;;;;;13.40;12.27;;;;;;;;;;5052694;28;20045;-79
2022/04/21 11:53:54;;;;;;;13.90;12.50;;;;;;;;;;5052418;28;20045;-80
2022/04/21 11:56:21;;;;;;;;;;;;;;;;;;5053232;28;20103;-79
2022/04/21 11:58:48;;;;;;;13.38;12.07;;;;;;;;;;5052503;28;20016;-78
2022/04/21 12:06:52;;;;;;;13.73;12.33;;;;;;;;;;5052892;28;20256;-79
2022/04/21 12:09:20;;;;;;;13.25;11.55;;;;;;;;;;5051228;28;20045;-79
2022/04/21 12:11:49;;;;;;;16.83;12.40;;;;;;;;;;5052493;28;20056;-79
2022/04/21 12:14:16;;;;;;;13.70;12.43;;;;;;;;;;5050830;28;20080;-79
2022/04/21 12:16:44;;;;;;;13.38;11.95;;;;;;;;;;5052468;28;20088;-79
2022/04/21 12:19:18;;;;;;;13.02;11.80;;;;;;;;;;5051609;28;20045;-83
2022/04/21 12:21:54;;;;;;;12.85;11.65;;;;;;;;;;5051577;28;20052;-81
2022/04/21 12:24:26;;;;;;;12.50;11.30;;;;;;;;;;5051523;28;20481;-80
2022/04/21 12:26:52;;;;;;;12.30;11.02;;;;;;;;;;5052084;28;20073;-83
2022/04/21 12:29:21;;;;;;;11.93;10.82;;;;;;;;;;5051862;28;20554;-77
2022/04/21 12:31:51;;;;;;;11.57;10.57;;;;;;;;;;5052228;28;20081;-78
2022/04/21 12:34:22;;;;;;;11.98;10.77;;;;;;;;;;5051783;28;20080;-81
2022/04/21 12:36:49;;;;;;;11.57;10.57;;;;;;;;;;5052057;28;20084;-81
2022/04/21 12:39:16;;;;;;;11.80;10.60;;;;;;;;;;5052045;28;20076;-80
2022/04/21 12:42:04;;;;;;;11.98;10.55;;;;;;;;;;5051104;28;20136;-81
2022/04/21 12:44:31;;;;;;;13.77;12.00;;;;;;;;;;5048106;28;20335;-82
2022/04/21 12:47:27;;;;;;;12.85;11.52;;;;;;;;;;5051583;28;20061;-81
2022/04/21 12:50:03;;;;;;;12.52;11.35;;;;;;;;;;5048500;28;20132;-80
2022/04/21 12:52:33;;;;;;;12.63;11.43;;;;;;;;;;5051626;28;20041;-81
2022/04/21 12:55:00;;;;;;;13.30;12.00;;;;;;;;;;5051841;28;20052;-80
2022/04/21 12:57:27;;;;;;;;;;;;;;;;;;5052286;28;20045;-81
2022/04/21 12:59:54;;;;;;;13.75;12.18;;;;;;;;;;5050216;28;19975;-78
2022/04/21 13:02:20;;;;;;;12.30;11.18;;;;;;;;;;5051581;28;20118;-80
2022/04/21 13:04:47;;;;;;;13.82;11.35;;;;;;;;;;5051496;28;20382;-85
2022/04/21 13:07:13;;;;;;;11.65;10.63;;;;;;;;;;5050104;28;20076;-78
2022/04/21 13:09:40;;;;;;;11.98;10.75;;;;;;;;;;5051237;28;20447;-78
2022/04/21 13:12:07;;;;;;;11.43;10.32;;;;;;;;;;5051637;28;20569;-81
2022/04/21 13:14:33;;;;;;;13.55;10.75;;;;;;;;;;5051334;28;20570;-80
2022/04/21 13:17:00;;;;;;;11.13;9.97;;;;;;;;;;5049797;28;20077;-79
2022/04/21 13:19:26;;;;;;;11.52;10.45;;;;;;;;;;5051184;28;20500;-79
2022/04/21 13:22:03;;;;;;;10.80;9.70;;;;;;;;;;5050200;28;20049;-80
2022/04/21 13:24:29;;;;;;;10.35;9.45;;;;;;;;;;5051153;28;20114;-82
2022/04/21 13:26:56;;;;;;;;;;;;;;;;;;5051486;28;20080;-79
2022/04/21 13:29:23;;;;;;;10.82;9.32;;;;;;;;;;5051237;28;19955;-78
2022/04/21 13:34:35;;;;;;;10.65;9.60;;;;;;;;;;5050930;28;20080;-80
2022/04/21 13:37:02;;;;;;;10.60;9.65;;;;;;;;;;5050708;28;20070;-78
2022/04/21 13:39:29;;;;;;;10.35;9.32;;;;;;;;;;5051707;28;20457;-78
2022/04/21 13:41:59;;;;;;;10.05;9.05;;;;;;;;;;5049824;28;20048;-81
2022/04/21 13:44:26;;;;;;;9.15;8.25;;;;;;;;;;5048920;28;20048;-79
2022/04/21 13:47:13;;;;;;;9.60;8.68;;;;;;;;;;5050748;28;20123;-80
2022/04/21 13:49:46;;;;;;;9.93;9.02;;;;;;;;;;5050429;28;20103;-82
2022/04/21 13:52:12;;;;;;;9.82;8.82;;;;;;;;;;5050727;28;20053;-80
2022/04/21 13:54:39;;;;;;;9.63;8.30;;;;;;;;;;5050401;28;20096;-82
2022/04/21 13:57:05;;;;;;;9.68;8.52;;;;;;;;;;5049105;28;20480;-81
2022/04/21 13:59:32;;;;;;;10.80;9.38;;;;;;;;;;5050547;28;20095;-81
2022/04/21 14:01:58;;;;;;;9.55;8.65;;;;;;;;;;5050049;28;20119;-82
2022/04/21 14:04:25;;;;;;;10.07;9.18;;;;;;;;;;5049731;28;20049;-82
2022/04/21 14:06:55;;;;;;;10.98;9.88;;;;;;;;;;5050192;28;20095;-82
2022/04/21 14:09:22;;;;;;;10.48;9.48;;;;;;;;;;5049805;28;20084;-81
2022/04/21 14:11:51;;;;;;;10.73;9.32;;;;;;;;;;5049561;28;20129;-83
2022/04/21 14:14:17;;;;;;;9.52;8.63;;;;;;;;;;5050128;28;20110;-80
2022/04/21 14:16:43;;;;;;;9.50;8.63;;;;;;;;;;5049592;28;20143;-79
2022/04/21 14:19:10;;;;;;;9.88;8.88;;;;;;;;;;5049958;28;20134;-80
2022/04/21 14:21:36;;;;;;;10.32;9.25;;;;;;;;;;5049888;28;20088;-80
2022/04/21 14:24:03;;;;;;;9.68;8.60;;;;;;;;;;5048546;28;20094;-81
2022/04/21 14:26:29;;;;;;;9.40;8.50;;;;;;;;;;5050318;28;20083;-79
2022/04/21 14:28:56;;;;;;;12.70;9.13;;;;;;;;;;5048561;28;20484;-79
2022/04/21 14:31:23;;;;;;;11.10;9.98;;;;;;;;;;5049900;28;20538;-80
2022/04/21 14:33:49;;;;;;;11.98;8.80;;;;;;;;;;5049764;28;20140;-79
2022/04/21 14:36:15;;;;;;;11.82;10.13;;;;;;;;;;5050006;28;20053;-77
2022/04/21 14:44:29;;;;;;;10.18;8.93;;;;;;;;;;5044607;28;20087;-81
2022/04/21 14:46:56;;;;;;;10.20;8.43;;;;;;;;;;5041117;28;20085;-81
2022/04/21 14:49:42;;;;;;;8.15;7.30;;;;;;;;;;5049152;28;20064;-80
2022/04/21 14:52:09;;;;;;;8.30;7.50;;;;;;;;;;5049148;28;20543;-80
2022/04/21 14:54:36;;;;;;;8.40;7.40;;;;;;;;;;5049069;28;20076;-81
2022/04/21 14:57:03;;;;;;;7.80;6.93;;;;;;;;;;5049316;28;20052;-82
2022/04/21 14:59:31;;;;;;;6.82;6.13;;;;;;;;;;5049033;28;20128;-82
2022/04/21 15:01:58;;;;;;;7.30;6.70;;;;;;;;;;5047809;28;20081;-82
2022/04/21 15:04:24;;;;;;;6.97;6.38;;;;;;;;;;5047495;28;20511;-82
2022/04/21 15:06:51;;;;;;;6.72;6.13;;;;;;;;;;5049526;28;20041;-84
2022/04/21 15:09:17;;;;;;;7.55;6.65;;;;;;;;;;5048136;28;20104;-83
2022/04/21 15:11:45;;;;;;;7.35;6.63;;;;;;;;;;5049359;28;20053;-86
2022/04/21 15:14:12;;;;;;;7.00;6.35;;;;;;;;;;5048352;28;20110;-82
2022/04/21 15:16:38;;;;;;;6.35;5.85;;;;;;;;;;5049489;28;20504;-83
2022/04/21 15:19:04;;;;;;;6.72;6.13;;;;;;;;;;5049322;28;20072;-84
2022/04/21 15:21:35;;;;;;;6.13;5.60;;;;;;;;;;5049307;28;20155;-85
2022/04/21 15:24:05;;;;;;;6.43;5.82;;;;;;;;;;5049251;28;20286;-85
2022/04/21 15:26:32;;;;;;;9.43;6.40;;;;;;;;;;5047991;28;20396;-84
2022/04/21 15:28:58;;;;;;;7.25;6.10;;;;;;;;;;5048422;28;20465;-83
2022/04/21 15:31:25;;;;;;;6.40;5.80;;;;;;;;;;5048294;28;20056;-83
2022/04/21 15:33:52;;;;;;;6.28;5.78;;;;;;;;;;5049478;28;20059;-82
2022/04/21 15:36:19;;;;;;;5.25;4.85;;;;;;;;;;5049489;28;20409;-83